Time;durP1;ratioP1;P1;durP2;ratioP2;P2;SDS_P1;SDS_P2;PMS_P1;PMS_P2;Temp;Humidity;BMP_temperature;BMP_pressure;BME280_temperature;BME280_humidity;BME280_pressure;Samples;Min_cycle;Max_cycle;Signal;HPM_P1;HPM_P2
2021/03/25 00:01:11;;;;;;;177.67;89.47;;;;;;;;;;5083587;28;20198;-83
2021/03/25 00:03:37;;;;;;;195.93;100.37;;;;;;;;;;5082054;28;20328;-82
2021/03/25 00:06:03;;;;;;;152.77;79.10;;;;;;;;;;5094193;28;20266;-82
2021/03/25 00:08:28;;;;;;;170.37;85.07;;;;;;;;;;5080880;28;20190;-83
2021/03/25 00:10:54;;;;;;;189.77;94.63;;;;;;;;;;5074252;28;20167;-83
2021/03/25 00:13:19;;;;;;;157.67;81.73;;;;;;;;;;5074201;28;20628;-82
2021/03/25 00:15:45;;;;;;;131.40;72.63;;;;;;;;;;5076689;28;20610;-83
2021/03/25 00:18:11;;;;;;;170.87;88.30;;;;;;;;;;5094005;28;20520;-83
2021/03/25 00:20:36;;;;;;;177.47;93.07;;;;;;;;;;5093824;28;20162;-83
2021/03/25 00:23:02;;;;;;;135.70;73.00;;;;;;;;;;5094236;28;20202;-83
2021/03/25 00:25:30;;;;;;;122.10;64.30;;;;;;;;;;5094365;28;20188;-83
2021/03/25 00:27:55;;;;;;;116.93;65.63;;;;;;;;;;5094184;28;20179;-83
2021/03/25 00:30:25;;;;;;;128.43;68.53;;;;;;;;;;5094192;28;20490;-83
2021/03/25 00:32:50;;;;;;;165.13;89.77;;;;;;;;;;5093885;28;20189;-82
2021/03/25 00:35:16;;;;;;;159.27;84.53;;;;;;;;;;5093960;28;20175;-82
2021/03/25 00:37:41;;;;;;;149.50;80.20;;;;;;;;;;5094280;28;20179;-83
2021/03/25 00:40:08;;;;;;;160.50;85.63;;;;;;;;;;5093848;28;20517;-83
2021/03/25 00:42:33;;;;;;;136.87;70.97;;;;;;;;;;5093504;28;20226;-82
2021/03/25 00:44:59;;;;;;;125.00;65.83;;;;;;;;;;5094366;28;20225;-83
2021/03/25 00:47:25;;;;;;;118.00;65.47;;;;;;;;;;5093808;28;20166;-83
2021/03/25 00:49:50;;;;;;;106.60;58.33;;;;;;;;;;5094284;28;20170;-83
2021/03/25 00:52:16;;;;;;;99.70;55.00;;;;;;;;;;5094243;28;20217;-83
2021/03/25 00:54:41;;;;;;;104.70;58.60;;;;;;;;;;5092461;28;20174;-83
2021/03/25 00:57:07;;;;;;;113.43;64.93;;;;;;;;;;5094073;28;20514;-83
2021/03/25 00:59:32;;;;;;;100.57;57.33;;;;;;;;;;5094120;28;20225;-82
2021/03/25 01:01:57;;;;;;;111.40;63.10;;;;;;;;;;5093752;28;20240;-82
2021/03/25 01:04:23;;;;;;;103.77;58.87;;;;;;;;;;5093631;28;20171;-82
2021/03/25 01:06:48;;;;;;;122.93;69.40;;;;;;;;;;5093877;28;20257;-83
2021/03/25 01:09:19;;;;;;;145.57;78.40;;;;;;;;;;5093601;28;20166;-83
2021/03/25 01:11:44;;;;;;;155.23;80.70;;;;;;;;;;5092539;28;20175;-82
2021/03/25 01:14:10;;;;;;;127.23;69.13;;;;;;;;;;5073936;28;20173;-82
2021/03/25 01:16:37;;;;;;;105.43;57.33;;;;;;;;;;5073430;28;20617;-81
2021/03/25 01:19:04;;;;;;;105.03;56.90;;;;;;;;;;5073410;28;20197;-82
2021/03/25 01:21:29;;;;;;;122.67;65.73;;;;;;;;;;5073157;28;20665;-82
2021/03/25 01:23:55;;;;;;;115.23;66.47;;;;;;;;;;5073233;28;20205;-82
2021/03/25 01:26:21;;;;;;;117.77;66.57;;;;;;;;;;5073222;28;20217;-82
2021/03/25 01:28:46;;;;;;;103.03;59.07;;;;;;;;;;5072898;28;20644;-82
2021/03/25 01:31:12;;;;;;;98.47;55.67;;;;;;;;;;5074181;28;20266;-82
2021/03/25 01:33:37;;;;;;;81.67;48.13;;;;;;;;;;5076532;28;20186;-82
2021/03/25 01:36:02;;;;;;;89.47;51.77;;;;;;;;;;5077090;28;20163;-82
2021/03/25 01:38:28;;;;;;;78.50;47.43;;;;;;;;;;5077294;28;20259;-82
2021/03/25 01:40:55;;;;;;;79.87;48.40;;;;;;;;;;5076591;28;20168;-82
2021/03/25 01:43:20;;;;;;;77.90;47.33;;;;;;;;;;5076616;28;20179;-82
2021/03/25 01:45:47;;;;;;;83.67;48.43;;;;;;;;;;5076354;28;20190;-82
2021/03/25 01:48:14;;;;;;;82.93;50.20;;;;;;;;;;5076461;28;20174;-82
2021/03/25 01:50:39;;;;;;;84.17;48.13;;;;;;;;;;5076517;28;20187;-82
2021/03/25 01:53:11;;;;;;;94.27;53.03;;;;;;;;;;5077062;28;20238;-82
2021/03/25 01:55:45;;;;;;;87.67;49.10;;;;;;;;;;5076272;28;20163;-82
2021/03/25 01:58:25;;;;;;;82.13;50.27;;;;;;;;;;5075812;28;20189;-83
2021/03/25 02:01:09;;;;;;;89.23;52.57;;;;;;;;;;5036347;28;20664;-83
2021/03/25 02:03:34;;;;;;;92.67;54.23;;;;;;;;;;5036337;28;20184;-82
2021/03/25 02:06:09;;;;;;;96.27;56.57;;;;;;;;;;5036160;28;20165;-83
2021/03/25 02:08:46;;;;;;;83.00;49.10;;;;;;;;;;5036052;28;20175;-82
2021/03/25 02:11:11;;;;;;;82.50;45.90;;;;;;;;;;5036552;28;20168;-83
2021/03/25 02:13:46;;;;;;;74.03;44.87;;;;;;;;;;5036500;28;20169;-83
2021/03/25 02:16:14;;;;;;;81.43;49.47;;;;;;;;;;5036146;28;20222;-83
2021/03/25 02:18:52;;;;;;;71.87;45.60;;;;;;;;;;5036102;28;20207;-82
2021/03/25 02:21:18;;;;;;;78.77;47.50;;;;;;;;;;5035972;28;20272;-83
2021/03/25 02:24:01;;;;;;;76.53;47.13;;;;;;;;;;5035985;28;20200;-83
2021/03/25 02:26:46;;;;;;;67.83;41.03;;;;;;;;;;5036346;28;20164;-83
2021/03/25 02:29:30;;;;;;;68.97;41.87;;;;;;;;;;5036487;28;20175;-83
2021/03/25 02:31:59;;;;;;;68.93;42.03;;;;;;;;;;5035918;28;20168;-82
2021/03/25 02:34:31;;;;;;;68.87;43.30;;;;;;;;;;5035527;28;20169;-82
2021/03/25 02:37:03;;;;;;;71.53;43.30;;;;;;;;;;5035422;28;20204;-82
2021/03/25 02:39:41;;;;;;;64.30;39.77;;;;;;;;;;5035709;28;20165;-83
2021/03/25 02:42:07;;;;;;;68.67;41.83;;;;;;;;;;5035665;28;20663;-82
2021/03/25 02:44:39;;;;;;;63.17;40.93;;;;;;;;;;5034599;28;20266;-82
2021/03/25 02:47:08;;;;;;;73.67;43.87;;;;;;;;;;5035882;28;20169;-82
2021/03/25 02:49:36;;;;;;;69.40;44.00;;;;;;;;;;5035326;28;20172;-82
2021/03/25 02:52:20;;;;;;;74.90;44.73;;;;;;;;;;5035688;28;20219;-82
2021/03/25 02:54:46;;;;;;;68.77;41.80;;;;;;;;;;5035711;28;20168;-82
2021/03/25 02:57:18;;;;;;;62.57;39.03;;;;;;;;;;5035101;28;20260;-82
2021/03/25 02:59:46;;;;;;;65.27;40.43;;;;;;;;;;5057797;28;20684;-82
2021/03/25 03:02:18;;;;;;;65.70;42.47;;;;;;;;;;5075162;28;20195;-82
2021/03/25 03:04:45;;;;;;;68.33;42.90;;;;;;;;;;5075171;28;20256;-82
2021/03/25 03:07:18;;;;;;;64.10;40.40;;;;;;;;;;5074790;28;20177;-82
2021/03/25 03:09:46;;;;;;;66.63;40.67;;;;;;;;;;5075373;28;20163;-82
2021/03/25 03:12:16;;;;;;;64.00;38.20;;;;;;;;;;5075005;28;20176;-82
2021/03/25 03:14:48;;;;;;;62.23;40.97;;;;;;;;;;5074909;28;20158;-82
2021/03/25 03:17:17;;;;;;;66.17;40.67;;;;;;;;;;5074832;28;20250;-82
2021/03/25 03:19:52;;;;;;;63.70;39.47;;;;;;;;;;5075153;28;20172;-82
2021/03/25 03:22:17;;;;;;;58.60;38.50;;;;;;;;;;5075210;28;20297;-82
2021/03/25 03:24:46;;;;;;;58.17;38.23;;;;;;;;;;5074423;28;20676;-82
2021/03/25 03:27:17;;;;;;;63.97;38.80;;;;;;;;;;5073532;28;20199;-82
2021/03/25 03:29:44;;;;;;;60.63;37.70;;;;;;;;;;5074716;28;20250;-82
2021/03/25 03:32:23;;;;;;;62.10;36.83;;;;;;;;;;5074603;28;20175;-82
2021/03/25 03:34:50;;;;;;;66.23;37.97;;;;;;;;;;5074880;28;20684;-83
2021/03/25 03:37:24;;;;;;;60.87;37.00;;;;;;;;;;5074225;28;20194;-82
2021/03/25 03:39:53;;;;;;;61.93;36.43;;;;;;;;;;5074248;28;20570;-83
2021/03/25 03:42:20;;;;;;;60.13;36.40;;;;;;;;;;5074441;28;20198;-82
2021/03/25 03:44:46;;;;;;;58.40;35.77;;;;;;;;;;5074731;28;20175;-83
2021/03/25 03:47:13;;;;;;;69.67;40.80;;;;;;;;;;5074167;28;20163;-83
2021/03/25 03:49:41;;;;;;;96.67;49.90;;;;;;;;;;5075129;28;20175;-83
2021/03/25 03:52:08;;;;;;;86.23;47.87;;;;;;;;;;5073050;28;20227;-82
2021/03/25 03:54:34;;;;;;;78.67;45.70;;;;;;;;;;5073403;28;20167;-83
2021/03/25 03:57:18;;;;;;;74.53;45.07;;;;;;;;;;5074627;28;20613;-82
2021/03/25 03:59:47;;;;;;;80.37;46.37;;;;;;;;;;5073752;28;20303;-83
2021/03/25 04:02:17;;;;;;;75.47;43.77;;;;;;;;;;5074396;28;20217;-83
2021/03/25 04:04:45;;;;;;;68.97;40.03;;;;;;;;;;5073871;28;20163;-82
2021/03/25 04:07:15;;;;;;;72.87;41.90;;;;;;;;;;5074255;28;20175;-83
2021/03/25 04:09:40;;;;;;;62.60;40.20;;;;;;;;;;5073706;28;20175;-83
2021/03/25 04:12:11;;;;;;;70.13;42.07;;;;;;;;;;5073709;28;20175;-83
2021/03/25 04:14:45;;;;;;;73.73;42.77;;;;;;;;;;5074576;28;20679;-83
2021/03/25 04:17:13;;;;;;;73.00;44.13;;;;;;;;;;5074649;28;20193;-83
2021/03/25 04:19:42;;;;;;;67.90;42.30;;;;;;;;;;5074250;28;20175;-83
2021/03/25 04:22:21;;;;;;;75.30;43.07;;;;;;;;;;5073389;28;20510;-83
2021/03/25 04:24:51;;;;;;;81.60;45.63;;;;;;;;;;5074202;28;20217;-83
2021/03/25 04:27:25;;;;;;;80.50;45.93;;;;;;;;;;5073863;28;20172;-83
2021/03/25 04:30:02;;;;;;;74.10;43.37;;;;;;;;;;5074001;28;20167;-83
2021/03/25 04:32:28;;;;;;;76.20;43.23;;;;;;;;;;5074367;28;20206;-82
2021/03/25 04:34:53;;;;;;;76.10;43.60;;;;;;;;;;5073841;28;20194;-82
2021/03/25 04:37:19;;;;;;;81.57;47.87;;;;;;;;;;5074077;28;20653;-82
2021/03/25 04:39:45;;;;;;;89.43;48.63;;;;;;;;;;5073981;28;20171;-82
2021/03/25 04:42:11;;;;;;;82.87;49.03;;;;;;;;;;5073612;28;20206;-82
2021/03/25 04:44:39;;;;;;;82.07;47.97;;;;;;;;;;5073908;28;20167;-82
2021/03/25 04:47:04;;;;;;;77.97;47.57;;;;;;;;;;5073759;28;20175;-82
2021/03/25 04:49:38;;;;;;;106.10;49.07;;;;;;;;;;5073580;28;20168;-82
2021/03/25 04:52:08;;;;;;;88.20;49.50;;;;;;;;;;5073521;28;20187;-82
2021/03/25 04:54:36;;;;;;;101.83;53.70;;;;;;;;;;5074046;28;20630;-82
2021/03/25 04:57:06;;;;;;;106.00;54.80;;;;;;;;;;5073666;28;20265;-82
2021/03/25 04:59:32;;;;;;;108.43;56.67;;;;;;;;;;5073254;28;20227;-82
2021/03/25 05:01:59;;;;;;;102.57;54.90;;;;;;;;;;5073411;28;20228;-82
2021/03/25 05:04:24;;;;;;;111.77;63.03;;;;;;;;;;5074126;28;20182;-82
2021/03/25 05:07:00;;;;;;;125.13;65.77;;;;;;;;;;5075286;28;20172;-82
2021/03/25 05:09:26;;;;;;;99.93;56.87;;;;;;;;;;5077749;28;20159;-82
2021/03/25 05:11:53;;;;;;;98.10;54.47;;;;;;;;;;5077469;28;20182;-83
2021/03/25 05:14:23;;;;;;;100.80;55.10;;;;;;;;;;5077048;28;20660;-83
2021/03/25 05:16:52;;;;;;;99.73;56.70;;;;;;;;;;5077212;28;20222;-82
2021/03/25 05:19:17;;;;;;;126.47;69.80;;;;;;;;;;5077455;28;20270;-82
2021/03/25 05:21:58;;;;;;;131.40;73.47;;;;;;;;;;5076937;28;20289;-82
2021/03/25 05:24:30;;;;;;;130.57;72.40;;;;;;;;;;5077107;28;20175;-82
2021/03/25 05:27:08;;;;;;;138.27;77.10;;;;;;;;;;5076782;28;20172;-82
2021/03/25 05:29:33;;;;;;;117.33;66.23;;;;;;;;;;5077358;28;20173;-83
2021/03/25 05:31:59;;;;;;;118.73;62.63;;;;;;;;;;5077217;28;20258;-83
2021/03/25 05:34:25;;;;;;;119.97;66.80;;;;;;;;;;5076915;28;20167;-83
2021/03/25 05:36:52;;;;;;;112.93;66.60;;;;;;;;;;5077135;28;20167;-82
2021/03/25 05:39:18;;;;;;;116.37;66.90;;;;;;;;;;5077280;28;20625;-82
2021/03/25 05:42:01;;;;;;;130.70;74.77;;;;;;;;;;5077173;28;20195;-82
2021/03/25 05:44:38;;;;;;;106.77;62.07;;;;;;;;;;5077062;28;20242;-82
2021/03/25 05:47:19;;;;;;;102.47;59.47;;;;;;;;;;5076934;28;20164;-83
2021/03/25 05:50:03;;;;;;;111.07;60.47;;;;;;;;;;5076892;28;20189;-82
2021/03/25 05:52:37;;;;;;;97.93;57.60;;;;;;;;;;5076671;28;20187;-82
2021/03/25 05:55:02;;;;;;;92.43;50.00;;;;;;;;;;5076191;28;20179;-83
2021/03/25 05:57:35;;;;;;;204.70;112.63;;;;;;;;;;5076170;28;20274;-82
2021/03/25 06:00:00;;;;;;;90.50;49.57;;;;;;;;;;5076069;28;20690;-83
2021/03/25 06:02:34;;;;;;;116.80;64.87;;;;;;;;;;5076049;28;20195;-82
2021/03/25 06:05:00;;;;;;;81.20;46.27;;;;;;;;;;5076600;28;20507;-82
2021/03/25 06:07:37;;;;;;;79.63;46.40;;;;;;;;;;5076087;28;20164;-82
2021/03/25 06:10:17;;;;;;;71.20;44.33;;;;;;;;;;5076555;28;20188;-82
2021/03/25 06:12:50;;;;;;;74.60;44.40;;;;;;;;;;5076721;28;20170;-82
2021/03/25 06:15:34;;;;;;;66.40;40.43;;;;;;;;;;5076499;28;20602;-82
2021/03/25 06:18:18;;;;;;;65.03;41.10;;;;;;;;;;5075301;28;20164;-83
2021/03/25 06:20:46;;;;;;;63.37;38.43;;;;;;;;;;5076381;28;20159;-83
2021/03/25 06:23:14;;;;;;;61.67;40.17;;;;;;;;;;5076068;28;20188;-83
2021/03/25 06:25:56;;;;;;;71.03;44.83;;;;;;;;;;5076210;28;20176;-83
2021/03/25 06:28:40;;;;;;;77.90;45.83;;;;;;;;;;5075893;28;20648;-82
2021/03/25 06:31:21;;;;;;;87.60;54.63;;;;;;;;;;5076214;28;20507;-82
2021/03/25 06:33:46;;;;;;;86.70;47.97;;;;;;;;;;5075845;28;20167;-82
2021/03/25 06:36:13;;;;;;;83.93;46.67;;;;;;;;;;5075844;28;20610;-83
2021/03/25 06:38:39;;;;;;;81.50;46.50;;;;;;;;;;5075977;28;20218;-82
2021/03/25 06:41:08;;;;;;;140.57;77.20;;;;;;;;;;5074296;28;20645;-83
2021/03/25 06:43:43;;;;;;;144.67;83.93;;;;;;;;;;5076519;28;20179;-83
2021/03/25 06:46:18;;;;;;;119.40;58.73;;;;;;;;;;5075817;28;20518;-83
2021/03/25 06:48:54;;;;;;;126.00;64.90;;;;;;;;;;5075970;28;20166;-82
2021/03/25 06:51:30;;;;;;;89.47;47.40;;;;;;;;;;5076021;28;20163;-82
2021/03/25 06:54:04;;;;;;;77.20;44.07;;;;;;;;;;5075555;28;20186;-82
2021/03/25 06:56:33;;;;;;;108.67;61.90;;;;;;;;;;5074928;28;20163;-82
2021/03/25 06:59:00;;;;;;;88.43;50.10;;;;;;;;;;5077269;28;20729;-82
2021/03/25 07:01:33;;;;;;;88.97;46.87;;;;;;;;;;5091014;28;20190;-83
2021/03/25 07:04:05;;;;;;;89.17;53.63;;;;;;;;;;5068721;28;20183;-83
2021/03/25 07:06:32;;;;;;;86.27;49.90;;;;;;;;;;5075330;28;20193;-83
2021/03/25 07:08:57;;;;;;;88.13;45.47;;;;;;;;;;5073808;28;20203;-82
2021/03/25 07:11:25;;;;;;;80.83;46.63;;;;;;;;;;5075138;28;20202;-82
2021/03/25 07:13:59;;;;;;;82.47;45.80;;;;;;;;;;5073481;28;20182;-83
2021/03/25 07:16:25;;;;;;;85.77;49.13;;;;;;;;;;5073522;28;20228;-83
2021/03/25 07:18:56;;;;;;;117.90;68.73;;;;;;;;;;5074793;28;20250;-82
2021/03/25 07:21:26;;;;;;;82.90;46.03;;;;;;;;;;5074693;28;20191;-83
2021/03/25 07:23:53;;;;;;;98.90;56.07;;;;;;;;;;5074783;28;20163;-82
2021/03/25 07:26:28;;;;;;;92.63;51.47;;;;;;;;;;5074422;28;20666;-82
2021/03/25 07:28:56;;;;;;;82.87;47.73;;;;;;;;;;5074458;28;20246;-82
2021/03/25 07:31:33;;;;;;;90.00;52.10;;;;;;;;;;5074823;28;20178;-82
2021/03/25 07:34:00;;;;;;;91.43;51.13;;;;;;;;;;5073645;28;20210;-82
2021/03/25 07:36:25;;;;;;;88.57;51.03;;;;;;;;;;5056678;28;20168;-82
2021/03/25 07:38:58;;;;;;;86.50;49.63;;;;;;;;;;5072450;28;20621;-82
2021/03/25 07:41:28;;;;;;;94.63;50.50;;;;;;;;;;5072337;28;20290;-83
2021/03/25 07:44:11;;;;;;;96.50;55.10;;;;;;;;;;5072929;28;20533;-82
2021/03/25 07:46:43;;;;;;;77.63;44.53;;;;;;;;;;5052696;28;20186;-83
2021/03/25 07:49:12;;;;;;;70.90;40.03;;;;;;;;;;5054064;28;20171;-82
2021/03/25 07:51:41;;;;;;;65.17;37.90;;;;;;;;;;5053821;28;20172;-82
2021/03/25 07:54:10;;;;;;;68.23;42.70;;;;;;;;;;5054157;28;20172;-82
2021/03/25 07:56:35;;;;;;;62.67;38.13;;;;;;;;;;5054278;28;20168;-82
2021/03/25 07:59:00;;;;;;;69.60;38.70;;;;;;;;;;5053694;28;20216;-82
2021/03/25 08:01:26;;;;;;;76.70;45.57;;;;;;;;;;5054124;28;20681;-82
2021/03/25 08:03:52;;;;;;;63.90;36.57;;;;;;;;;;5054016;28;20180;-82
2021/03/25 08:06:27;;;;;;;56.70;35.33;;;;;;;;;;5053756;28;20228;-83
2021/03/25 08:09:00;;;;;;;61.17;36.60;;;;;;;;;;5053937;28;20167;-83
2021/03/25 08:11:25;;;;;;;61.17;36.77;;;;;;;;;;5053657;28;20176;-83
2021/03/25 08:13:53;;;;;;;64.23;39.53;;;;;;;;;;5053892;28;20179;-83
2021/03/25 08:16:20;;;;;;;62.00;38.30;;;;;;;;;;5053757;28;20210;-82
2021/03/25 08:19:04;;;;;;;62.47;39.13;;;;;;;;;;5052674;28;20278;-83
2021/03/25 08:21:45;;;;;;;61.17;37.00;;;;;;;;;;5053936;28;20657;-83
2021/03/25 08:24:20;;;;;;;63.67;37.90;;;;;;;;;;5053888;28;20176;-83
2021/03/25 08:26:45;;;;;;;59.13;36.80;;;;;;;;;;5053805;28;20171;-83
2021/03/25 08:29:27;;;;;;;62.90;38.47;;;;;;;;;;5053580;28;20164;-83
2021/03/25 08:32:06;;;;;;;58.37;38.33;;;;;;;;;;5053768;28;20172;-83
2021/03/25 08:34:31;;;;;;;64.27;38.70;;;;;;;;;;5053160;28;20182;-82
2021/03/25 08:37:10;;;;;;;61.30;38.33;;;;;;;;;;5053422;28;20168;-84
2021/03/25 08:39:49;;;;;;;61.07;37.43;;;;;;;;;;5053619;28;20163;-83
2021/03/25 08:42:23;;;;;;;71.00;39.10;;;;;;;;;;5062086;28;20202;-83
2021/03/25 08:44:49;;;;;;;63.40;38.93;;;;;;;;;;5074658;28;20190;-83
2021/03/25 08:47:19;;;;;;;64.27;39.43;;;;;;;;;;5077575;28;20170;-83
2021/03/25 08:49:51;;;;;;;62.43;38.27;;;;;;;;;;5077447;28;20202;-82
2021/03/25 08:52:18;;;;;;;59.60;37.87;;;;;;;;;;5077422;28;20206;-83
2021/03/25 08:54:49;;;;;;;55.97;37.90;;;;;;;;;;5077840;28;20254;-83
2021/03/25 08:57:23;;;;;;;66.70;40.03;;;;;;;;;;5077640;28;20167;-83
2021/03/25 08:59:58;;;;;;;78.63;46.27;;;;;;;;;;5077218;28;20230;-83
2021/03/25 09:02:27;;;;;;;61.93;37.67;;;;;;;;;;5077290;28;20710;-83
2021/03/25 09:04:57;;;;;;;66.33;40.27;;;;;;;;;;5077775;28;20571;-83
2021/03/25 09:07:22;;;;;;;63.57;38.93;;;;;;;;;;5080784;28;20177;-83
2021/03/25 09:09:50;;;;;;;59.50;38.20;;;;;;;;;;5097958;28;20262;-83
2021/03/25 09:12:19;;;;;;;58.53;35.90;;;;;;;;;;5097604;28;20174;-83
2021/03/25 09:14:44;;;;;;;59.57;37.07;;;;;;;;;;5097480;28;20177;-84
2021/03/25 09:17:13;;;;;;;62.97;40.40;;;;;;;;;;5093778;28;20171;-83
2021/03/25 09:19:40;;;;;;;56.90;36.93;;;;;;;;;;5085721;28;20179;-82
2021/03/25 09:22:05;;;;;;;49.43;33.97;;;;;;;;;;5085065;28;20293;-83
2021/03/25 09:24:31;;;;;;;53.73;33.07;;;;;;;;;;5097601;28;20206;-82
2021/03/25 09:27:01;;;;;;;62.20;44.27;;;;;;;;;;5083167;28;20190;-83
2021/03/25 09:29:28;;;;;;;42.90;30.00;;;;;;;;;;5076918;28;20176;-83
2021/03/25 09:31:56;;;;;;;55.93;36.47;;;;;;;;;;5075655;28;20171;-83
2021/03/25 09:34:25;;;;;;;52.77;34.67;;;;;;;;;;5075589;28;20277;-83
2021/03/25 09:36:50;;;;;;;45.87;30.43;;;;;;;;;;5076175;28;20666;-82
2021/03/25 09:39:21;;;;;;;41.67;29.07;;;;;;;;;;5077139;28;20190;-82
2021/03/25 09:41:47;;;;;;;47.50;32.03;;;;;;;;;;5076713;28;20195;-82
2021/03/25 09:44:15;;;;;;;60.47;42.33;;;;;;;;;;5076712;28;20767;-82
2021/03/25 09:46:43;;;;;;;58.70;38.17;;;;;;;;;;5076521;28;20223;-82
2021/03/25 09:49:16;;;;;;;61.27;41.57;;;;;;;;;;5076702;28;20176;-82
2021/03/25 09:51:42;;;;;;;50.87;34.03;;;;;;;;;;5076387;28;20618;-82
2021/03/25 09:54:21;;;;;;;45.97;31.80;;;;;;;;;;5076382;28;20168;-82
2021/03/25 09:56:49;;;;;;;58.33;40.43;;;;;;;;;;5077213;28;20163;-83
2021/03/25 09:59:33;;;;;;;50.53;34.43;;;;;;;;;;5075956;28;20227;-83
2021/03/25 10:01:59;;;;;;;53.17;36.77;;;;;;;;;;5074968;28;20207;-84
2021/03/25 10:04:25;;;;;;;61.97;41.40;;;;;;;;;;5071521;28;20262;-83
2021/03/25 10:06:54;;;;;;;43.83;30.87;;;;;;;;;;5066421;28;20679;-83
2021/03/25 10:09:40;;;;;;;49.30;33.60;;;;;;;;;;5066531;28;20511;-83
2021/03/25 10:12:09;;;;;;;43.27;30.60;;;;;;;;;;5069012;28;20188;-82
2021/03/25 10:14:46;;;;;;;44.47;30.77;;;;;;;;;;5075962;28;20191;-83
2021/03/25 10:17:30;;;;;;;43.90;31.33;;;;;;;;;;5075844;28;20171;-83
2021/03/25 10:19:55;;;;;;;43.00;29.50;;;;;;;;;;5076094;28;20558;-83
2021/03/25 10:22:21;;;;;;;47.23;31.47;;;;;;;;;;5075730;28;20265;-83
2021/03/25 10:24:55;;;;;;;46.40;31.27;;;;;;;;;;5076159;28;20167;-83
2021/03/25 10:27:31;;;;;;;46.93;33.07;;;;;;;;;;5074583;28;20175;-83
2021/03/25 10:29:56;;;;;;;48.40;32.00;;;;;;;;;;5074421;28;20521;-83
2021/03/25 10:32:22;;;;;;;49.30;34.93;;;;;;;;;;5074134;28;20175;-83
2021/03/25 10:34:48;;;;;;;60.13;33.33;;;;;;;;;;5075008;28;20589;-83
2021/03/25 10:37:17;;;;;;;46.87;31.20;;;;;;;;;;5095121;28;20171;-84
2021/03/25 10:39:43;;;;;;;55.27;36.60;;;;;;;;;;5095909;28;20167;-83
2021/03/25 10:42:13;;;;;;;48.33;31.90;;;;;;;;;;5077509;28;20217;-83
2021/03/25 10:44:39;;;;;;;47.23;31.80;;;;;;;;;;5095706;28;20269;-83
2021/03/25 10:47:06;;;;;;;50.00;31.93;;;;;;;;;;5095770;28;20583;-84
2021/03/25 10:49:45;;;;;;;44.80;30.63;;;;;;;;;;5096040;28;20178;-84
2021/03/25 10:52:31;;;;;;;44.47;29.87;;;;;;;;;;5096163;28;20205;-84
2021/03/25 10:54:57;;;;;;;41.27;29.43;;;;;;;;;;5094792;28;20182;-83
2021/03/25 10:57:24;;;;;;;45.73;31.20;;;;;;;;;;5067072;28;20183;-83
2021/03/25 10:59:51;;;;;;;40.90;29.20;;;;;;;;;;5055108;28;20227;-83
2021/03/25 11:02:23;;;;;;;46.87;31.80;;;;;;;;;;5054943;28;20195;-83
2021/03/25 11:04:58;;;;;;;47.00;31.33;;;;;;;;;;5070195;28;20513;-83
2021/03/25 11:07:24;;;;;;;50.20;34.90;;;;;;;;;;5073972;28;20518;-83
2021/03/25 11:10:12;;;;;;;45.93;31.63;;;;;;;;;;5075198;28;20174;-84
2021/03/25 11:12:37;;;;;;;40.87;30.57;;;;;;;;;;5074660;28;20256;-83
2021/03/25 11:15:20;;;;;;;42.93;31.23;;;;;;;;;;5074606;28;20555;-83
2021/03/25 11:17:47;;;;;;;118.47;69.93;;;;;;;;;;5074618;28;20171;-83
2021/03/25 11:20:15;;;;;;;39.57;28.77;;;;;;;;;;5075064;28;20244;-83
2021/03/25 11:22:41;;;;;;;43.73;31.27;;;;;;;;;;5074623;28;20191;-84
2021/03/25 11:25:11;;;;;;;36.70;27.40;;;;;;;;;;5074889;28;20167;-83
2021/03/25 11:27:37;;;;;;;39.83;29.27;;;;;;;;;;5074587;28;20277;-83
2021/03/25 11:30:07;;;;;;;38.07;27.20;;;;;;;;;;5074047;28;20669;-83
2021/03/25 11:32:38;;;;;;;43.00;28.53;;;;;;;;;;5074623;28;20167;-83
2021/03/25 11:35:20;;;;;;;42.97;29.97;;;;;;;;;;5074458;28;20691;-83
2021/03/25 11:37:46;;;;;;;44.77;30.70;;;;;;;;;;5074537;28;20199;-83
2021/03/25 11:40:13;;;;;;;40.67;29.53;;;;;;;;;;5074501;28;20221;-83
2021/03/25 11:42:42;;;;;;;50.53;35.33;;;;;;;;;;5074646;28;20203;-84
2021/03/25 11:45:27;;;;;;;49.17;33.83;;;;;;;;;;5074422;28;20175;-84
2021/03/25 11:47:53;;;;;;;42.07;30.60;;;;;;;;;;5073967;28;20224;-83
2021/03/25 11:50:18;;;;;;;38.60;29.13;;;;;;;;;;5074185;28;20171;-83
2021/03/25 11:52:45;;;;;;;39.03;29.07;;;;;;;;;;5073676;28;20642;-83
2021/03/25 11:55:19;;;;;;;46.50;32.60;;;;;;;;;;5074585;28;20175;-82
2021/03/25 11:57:45;;;;;;;44.00;29.77;;;;;;;;;;5073849;28;20173;-82
2021/03/25 12:00:10;;;;;;;41.77;30.97;;;;;;;;;;5082019;28;20222;-83
2021/03/25 12:02:36;;;;;;;46.93;31.60;;;;;;;;;;5083011;28;20239;-83
2021/03/25 12:05:22;;;;;;;40.80;29.43;;;;;;;;;;5074038;28;20171;-83
2021/03/25 12:07:58;;;;;;;40.67;29.43;;;;;;;;;;5071624;28;20186;-83
2021/03/25 12:10:23;;;;;;;44.83;30.20;;;;;;;;;;5072847;28;20604;-83
2021/03/25 12:12:49;;;;;;;41.50;30.43;;;;;;;;;;5073476;28;20210;-83
2021/03/25 12:15:15;;;;;;;44.20;30.57;;;;;;;;;;5073267;28;20174;-82
2021/03/25 12:17:43;;;;;;;43.43;31.20;;;;;;;;;;5073136;28;20198;-82
2021/03/25 12:20:09;;;;;;;43.57;30.63;;;;;;;;;;5073495;28;20171;-83
2021/03/25 12:22:39;;;;;;;44.00;31.27;;;;;;;;;;5073228;28;20195;-83
2021/03/25 12:25:05;;;;;;;44.50;30.60;;;;;;;;;;5073749;28;20634;-83
2021/03/25 12:27:30;;;;;;;45.17;31.87;;;;;;;;;;5073896;28;20195;-82
2021/03/25 12:29:56;;;;;;;43.93;30.87;;;;;;;;;;5073644;28;20198;-82
2021/03/25 12:32:24;;;;;;;45.10;31.37;;;;;;;;;;5073631;28;20254;-82
2021/03/25 12:34:49;;;;;;;46.13;34.87;;;;;;;;;;5073685;28;20548;-82
2021/03/25 12:37:15;;;;;;;44.23;31.87;;;;;;;;;;5073275;28;20221;-82
2021/03/25 12:39:40;;;;;;;45.80;31.30;;;;;;;;;;5072288;28;20217;-82
2021/03/25 12:42:06;;;;;;;41.53;30.93;;;;;;;;;;5073169;28;20225;-83
2021/03/25 12:44:33;;;;;;;40.37;30.10;;;;;;;;;;5073558;28;20266;-83
2021/03/25 12:47:00;;;;;;;43.53;30.90;;;;;;;;;;5073517;28;20175;-82
2021/03/25 12:49:26;;;;;;;39.90;29.87;;;;;;;;;;5073605;28;20524;-84
2021/03/25 12:51:51;;;;;;;40.73;29.43;;;;;;;;;;5074250;28;20258;-83
2021/03/25 12:54:16;;;;;;;39.17;29.13;;;;;;;;;;5073258;28;20258;-83
2021/03/25 12:56:42;;;;;;;40.83;30.40;;;;;;;;;;5073072;28;20176;-82
2021/03/25 12:59:12;;;;;;;45.93;32.10;;;;;;;;;;5073436;28;20223;-83
2021/03/25 13:01:37;;;;;;;41.93;30.77;;;;;;;;;;5072956;28;20206;-83
2021/03/25 13:04:03;;;;;;;40.03;29.63;;;;;;;;;;5073702;28;20683;-83
2021/03/25 13:06:28;;;;;;;39.50;29.23;;;;;;;;;;5073130;28;20183;-83
2021/03/25 13:08:54;;;;;;;43.13;30.30;;;;;;;;;;5073475;28;20175;-82
2021/03/25 13:11:23;;;;;;;113.63;79.07;;;;;;;;;;5072973;28;20193;-82
2021/03/25 13:13:49;;;;;;;45.60;34.17;;;;;;;;;;5072086;28;20174;-82
2021/03/25 13:16:14;;;;;;;39.23;28.10;;;;;;;;;;5073086;28;20171;-83
2021/03/25 13:18:39;;;;;;;41.07;28.17;;;;;;;;;;5072995;28;20171;-83
2021/03/25 13:21:05;;;;;;;42.43;30.10;;;;;;;;;;5073324;28;20223;-83
2021/03/25 13:23:31;;;;;;;42.53;29.80;;;;;;;;;;5072931;28;20282;-82
2021/03/25 13:25:56;;;;;;;41.87;29.73;;;;;;;;;;5072976;28;20175;-82
2021/03/25 13:28:22;;;;;;;56.10;34.20;;;;;;;;;;5076111;28;20671;-83
2021/03/25 13:30:48;;;;;;;43.33;29.67;;;;;;;;;;5076886;28;20606;-82
2021/03/25 13:33:14;;;;;;;48.17;31.03;;;;;;;;;;5076846;28;20186;-82
2021/03/25 13:35:40;;;;;;;45.90;30.80;;;;;;;;;;5076720;28;20171;-83
2021/03/25 13:38:07;;;;;;;45.77;31.10;;;;;;;;;;5076671;28;20297;-83
2021/03/25 13:40:33;;;;;;;43.30;30.67;;;;;;;;;;5076409;28;20691;-83
2021/03/25 13:42:59;;;;;;;43.27;30.17;;;;;;;;;;5076653;28;20206;-82
2021/03/25 13:45:25;;;;;;;46.93;30.40;;;;;;;;;;5076666;28;20175;-82
2021/03/25 13:47:51;;;;;;;44.70;30.03;;;;;;;;;;5077333;28;20684;-82
2021/03/25 13:50:18;;;;;;;39.03;29.03;;;;;;;;;;5076576;28;20202;-81
2021/03/25 13:52:44;;;;;;;38.87;29.00;;;;;;;;;;5077118;28;20191;-81
2021/03/25 13:55:11;;;;;;;37.63;27.33;;;;;;;;;;5077851;28;20181;-81
2021/03/25 13:57:36;;;;;;;42.80;29.30;;;;;;;;;;5078523;28;20254;-81
2021/03/25 14:00:03;;;;;;;42.63;30.53;;;;;;;;;;5076925;28;20647;-82
2021/03/25 14:02:29;;;;;;;37.90;28.20;;;;;;;;;;5077487;28;20664;-81
2021/03/25 14:04:54;;;;;;;41.30;28.63;;;;;;;;;;5078028;28;20175;-83
2021/03/25 14:07:19;;;;;;;39.73;28.57;;;;;;;;;;5078407;28;20174;-82
2021/03/25 14:09:45;;;;;;;39.57;28.40;;;;;;;;;;5077298;28;20176;-82
2021/03/25 14:12:10;;;;;;;39.53;28.40;;;;;;;;;;5076238;28;20227;-83
2021/03/25 14:14:36;;;;;;;41.93;29.77;;;;;;;;;;5076005;28;20531;-83
2021/03/25 14:17:01;;;;;;;41.47;29.57;;;;;;;;;;5076322;28;20647;-82
2021/03/25 14:19:26;;;;;;;40.10;28.40;;;;;;;;;;5084619;28;20622;-82
2021/03/25 14:21:52;;;;;;;41.10;29.03;;;;;;;;;;5087703;28;20198;-82
2021/03/25 14:24:17;;;;;;;42.50;28.63;;;;;;;;;;5087030;28;20232;-81
2021/03/25 14:26:42;;;;;;;38.87;28.57;;;;;;;;;;5080148;28;20194;-82